地図

経路データ

SID SEASON NUMBER BASIN SUBBASIN NAME ISO_TIME NATURE LAT LON WMO_WIND WMO_PRES WMO_AGENCY TRACK_TYPE DIST2LAND LANDFALL IFLAG USA_AGENCY USA_ATCF_ID USA_LAT USA_LON USA_RECORD USA_STATUS USA_WIND USA_PRES USA_SSHS USA_R34_NE USA_R34_SE USA_R34_SW USA_R34_NW USA_R50_NE USA_R50_SE USA_R50_SW USA_R50_NW USA_R64_NE USA_R64_SE USA_R64_SW USA_R64_NW USA_POCI USA_ROCI USA_RMW USA_EYE TOKYO_LAT TOKYO_LON TOKYO_GRADE TOKYO_WIND TOKYO_PRES TOKYO_R50_DIR TOKYO_R50_LONG TOKYO_R50_SHORT TOKYO_R30_DIR TOKYO_R30_LONG TOKYO_R30_SHORT TOKYO_LAND CMA_LAT CMA_LON CMA_CAT CMA_WIND CMA_PRES HKO_LAT HKO_LON HKO_CAT HKO_WIND HKO_PRES NEWDELHI_LAT NEWDELHI_LON NEWDELHI_GRADE NEWDELHI_WIND NEWDELHI_PRES NEWDELHI_CI NEWDELHI_DP NEWDELHI_POCI REUNION_LAT REUNION_LON REUNION_TYPE REUNION_WIND REUNION_PRES REUNION_TNUM REUNION_CI REUNION_RMW REUNION_R34_NE REUNION_R34_SE REUNION_R34_SW REUNION_R34_NW REUNION_R50_NE REUNION_R50_SE REUNION_R50_SW REUNION_R50_NW REUNION_R64_NE REUNION_R64_SE REUNION_R64_SW REUNION_R64_NW BOM_LAT BOM_LON BOM_TYPE BOM_WIND BOM_PRES BOM_TNUM BOM_CI BOM_RMW BOM_R34_NE BOM_R34_SE BOM_R34_SW BOM_R34_NW BOM_R50_NE BOM_R50_SE BOM_R50_SW BOM_R50_NW BOM_R64_NE BOM_R64_SE BOM_R64_SW BOM_R64_NW BOM_ROCI BOM_POCI BOM_EYE BOM_POS_METHOD BOM_PRES_METHOD NADI_LAT NADI_LON NADI_CAT NADI_WIND NADI_PRES WELLINGTON_LAT WELLINGTON_LON WELLINGTON_WIND WELLINGTON_PRES DS824_LAT DS824_LON DS824_STAGE DS824_WIND DS824_PRES TD9636_LAT TD9636_LON TD9636_STAGE TD9636_WIND TD9636_PRES TD9635_LAT TD9635_LON TD9635_WIND TD9635_PRES TD9635_ROCI NEUMANN_LAT NEUMANN_LON NEUMANN_CLASS NEUMANN_WIND NEUMANN_PRES MLC_LAT MLC_LON MLC_CLASS MLC_WIND MLC_PRES USA_GUST BOM_GUST BOM_GUST_PER REUNION_GUST REUNION_GUST_PER USA_SEAHGT USA_SEARAD_NE USA_SEARAD_SE USA_SEARAD_SW USA_SEARAD_NW STORM_SPEED STORM_DIR
1973273N12250 1973 105 EP MM KATHERINE 1973-09-29 12:00:00 TS 11.5000 -109.800 25 hurdat_epa main 1014 1011 O________OO___ hurdat_epa EP111973 11.5000 -109.800 TD 25 -1 11.5000 -109.800 TC 25 11.5000 -109.800 1 30 10 294
1973273N12250 1973 105 EP MM KATHERINE 1973-09-29 15:00:00 TS 11.6990 -110.251 main 1025 1022 P________PP___ EP111973 11.7001 -110.247 TD 32 -1 11.7001 -110.247 TC 32 11.6944 -110.265 1 33 10 294
1973273N12250 1973 105 EP MM KATHERINE 1973-09-29 18:00:00 TS 11.8982 -110.705 40 hurdat_epa main 1032 1030 O________OP___ hurdat_epa EP111973 11.9000 -110.700 TS 40 0 11.9000 -110.700 TC 40 11.8908 -110.724 1 37 10 294
1973273N12250 1973 105 EP MM KATHERINE 1973-09-29 21:00:00 TS 12.0983 -111.160 main 1049 1047 P________PP___ EP111973 12.1000 -111.158 TS 42 0 12.1000 -111.158 TC 42 12.0917 -111.172 1 41 10 295
1973273N12250 1973 105 EP MM KATHERINE 1973-09-30 00:00:00 TS 12.3000 -111.600 45 hurdat_epa main 1060 1060 O________OO___ hurdat_epa EP111973 12.3000 -111.600 TS 45 0 12.3000 -111.600 TC 45 12.3000 -111.600 2 45 9 296
1973273N12250 1973 105 EP MM KATHERINE 1973-09-30 03:00:00 TS 12.4974 -112.007 main 1074 1074 P________PP___ EP111973 12.4924 -112.008 TS 45 0 12.4924 -112.008 TC 45 12.5174 -112.007 2 46 9 298
1973273N12250 1973 105 EP MM KATHERINE 1973-09-30 06:00:00 TS 12.7084 -112.400 45 hurdat_epa main 1089 1088 O________OP___ hurdat_epa EP111973 12.7000 -112.400 TS 45 0 12.7000 -112.400 TC 45 12.7420 -112.400 2 47 9 301
1973273N12250 1973 105 EP MM KATHERINE 1973-09-30 09:00:00 TS 12.9540 -112.793 main 1096 1096 P________PP___ EP111973 12.9499 -112.793 TS 47 0 12.9499 -112.793 TC 47 12.9706 -112.794 2 48 9 302
1973273N12250 1973 105 EP MM KATHERINE 1973-09-30 12:00:00 TS 13.2000 -113.200 50 hurdat_epa main 1112 1112 O________OO___ hurdat_epa EP111973 13.2000 -113.200 TS 50 0 13.2000 -113.200 TC 50 13.2000 -113.200 2 50 9 298
1973273N12250 1973 105 EP MM KATHERINE 1973-09-30 15:00:00 TS 13.4033 -113.644 main 1128 1122 P________PP___ EP111973 13.4000 -113.643 TS 55 0 13.4000 -113.643 TC 55 13.4169 -113.648 2 52 10 295
1973273N12250 1973 105 EP MM KATHERINE 1973-09-30 18:00:00 TS 13.6070 -114.102 60 978 hurdat_epa main 1126 1118 O________OP___ hurdat_epa EP111973 13.6000 -114.100 TS 60 978 0 13.6000 -114.100 TC 60 978 13.6351 -114.108 2 55 10 296
1973273N12250 1973 105 EP MM KATHERINE 1973-09-30 21:00:00 TS 13.8461 -114.565 main 1127 1111 P________PP___ EP111973 13.8425 -114.565 TS 60 0 13.8425 -114.565 TC 60 13.8607 -114.564 2 57 10 299
1973273N12250 1973 105 EP MM KATHERINE 1973-10-01 00:00:00 TS 14.1000 -115.000 60 hurdat_epa main 1116 1106 O________OO___ hurdat_epa EP111973 14.1000 -115.000 TS 60 0 14.1000 -115.000 TC 60 14.1000 -115.000 2 60 9 303
1973273N12250 1973 105 EP MM KATHERINE 1973-10-01 03:00:00 TS 14.3484 -115.365 main 1117 1103 P________PP___ EP111973 14.3423 -115.358 TS 65 1 14.3423 -115.358 TC 65 14.3724 -115.397 2 62 9 306
1973273N12250 1973 105 EP MM KATHERINE 1973-10-01 06:00:00 TS 14.6114 -115.715 70 hurdat_epa main 1105 1094 O________OP___ hurdat_epa EP111973 14.6000 -115.700 HU 70 1 14.6000 -115.700 TC 70 14.6570 -115.773 2 65 9 308
1973273N12250 1973 105 EP MM KATHERINE 1973-10-01 09:00:00 TS 14.9136 -116.107 main 1100 1092 P________PP___ EP111973 14.9075 -116.100 HU 70 1 14.9075 -116.100 TC 70 14.9381 -116.137 2 67 10 308
1973273N12250 1973 105 EP MM KATHERINE 1973-10-01 12:00:00 TS 15.2000 -116.500 70 hurdat_epa main 1098 1094 O________OO___ hurdat_epa EP111973 15.2000 -116.500 HU 70 1 15.2000 -116.500 TC 70 15.2000 -116.500 4 70 9 305
1973273N12250 1973 105 EP MM KATHERINE 1973-10-01 15:00:00 TS 15.4178 -116.855 main 1108 1099 P________PP___ EP111973 15.4149 -116.850 HU 75 1 15.4149 -116.850 TC 75 15.4295 -116.875 4 73 8 301
1973273N12250 1973 105 EP MM KATHERINE 1973-10-01 18:00:00 TS 15.6074 -117.210 80 hurdat_epa main 1112 1111 O________OP___ hurdat_epa EP111973 15.6000 -117.200 HU 80 1 15.6000 -117.200 TC 80 15.6372 -117.250 4 77 8 299
1973273N12250 1973 105 EP MM KATHERINE 1973-10-01 21:00:00 TS 15.8113 -117.605 main 1124 1124 P________PP___ EP111973 15.8075 -117.600 HU 82 1 15.8075 -117.600 TC 82 15.8264 -117.625 4 81 9 297
1973273N12250 1973 105 EP MM KATHERINE 1973-10-02 00:00:00 TS 16.0000 -118.000 85 hurdat_epa main 1139 1139 O________OO___ hurdat_epa EP111973 16.0000 -118.000 HU 85 2 16.0000 -118.000 TC 85 16.0000 -118.000 4 85 8 296
1973273N12250 1973 105 EP MM KATHERINE 1973-10-02 03:00:00 TS 16.1587 -118.355 main 1154 1154 P________PP___ EP111973 16.1574 -118.350 HU 85 2 16.1574 -118.350 TC 85 16.1642 -118.375 4 85 7 294
1973273N12250 1973 105 EP MM KATHERINE 1973-10-02 06:00:00 TS 16.3029 -118.710 85 hurdat_epa main 1163 1160 O________OP___ hurdat_epa EP111973 16.3000 -118.700 HU 85 2 16.3000 -118.700 TC 85 16.3147 -118.750 4 85 8 292
1973273N12250 1973 105 EP MM KATHERINE 1973-10-02 09:00:00 TS 16.4516 -119.105 main 1170 1170 P________PP___ EP111973 16.4500 -119.100 HU 85 2 16.4500 -119.100 TC 85 16.4579 -119.125 4 85 8 291
1973273N12250 1973 105 EP MM KATHERINE 1973-10-02 12:00:00 TS 16.6000 -119.500 85 hurdat_epa main 1188 1186 O________OO___ hurdat_epa EP111973 16.6000 -119.500 HU 85 2 16.6000 -119.500 TC 85 16.6000 -119.500 4 85 8 293
1973273N12250 1973 105 EP MM KATHERINE 1973-10-02 15:00:00 TS 16.7507 -119.857 main 1198 1198 P________PP___ EP111973 16.7499 -119.850 HU 85 2 16.7499 -119.850 TC 85 16.7540 -119.883 4 83 7 294
1973273N12250 1973 105 EP MM KATHERINE 1973-10-02 18:00:00 TS 16.9015 -120.213 85 hurdat_epa main 1211 1210 O________OP___ hurdat_epa EP111973 16.9000 -120.200 HU 85 2 16.9000 -120.200 TC 85 16.9074 -120.265 4 82 8 293
1973273N12250 1973 105 EP MM KATHERINE 1973-10-02 21:00:00 TS 17.0515 -120.614 main 1224 1224 P________PP___ EP111973 17.0500 -120.608 HU 82 1 17.0500 -120.608 TC 82 17.0571 -120.639 4 81 8 292
1973273N12250 1973 105 EP MM KATHERINE 1973-10-03 00:00:00 TS 17.2000 -121.000 80 hurdat_epa main 1246 1246 O________OO___ hurdat_epa EP111973 17.2000 -121.000 HU 80 1 17.2000 -121.000 TC 80 17.2000 -121.000 4 80 7 295
1973273N12250 1973 105 EP MM KATHERINE 1973-10-03 03:00:00 TS 17.3593 -121.298 main 1254 1254 P________PP___ EP111973 17.3573 -121.308 HU 77 1 17.3573 -121.308 TC 77 17.3671 -121.258 4 78 6 299
1973273N12250 1973 105 EP MM KATHERINE 1973-10-03 06:00:00 TS 17.5045 -121.583 75 hurdat_epa main 1270 1270 O________OP___ hurdat_epa EP111973 17.5000 -121.600 HU 75 1 17.5000 -121.600 TC 75 17.5224 -121.515 4 77 6 296
1973273N12250 1973 105 EP MM KATHERINE 1973-10-03 09:00:00 TS 17.6199 -121.868 main 1287 1287 P________PP___ EP111973 17.6145 -121.875 HU 75 1 17.6145 -121.875 TC 75 17.6415 -121.839 4 76 7 286
1973273N12250 1973 105 EP MM KATHERINE 1973-10-03 12:00:00 TS 17.7000 -122.300 75 hurdat_epa main 1312 1312 O________OO___ hurdat_epa EP111973 17.7000 -122.300 HU 75 1 17.7000 -122.300 TC 75 17.7000 -122.300 4 75 11 278
1973273N12250 1973 105 EP MM KATHERINE 1973-10-03 15:00:00 TS 17.7812 -123.021 main 1364 1364 P________PP___ EP111973 17.8027 -123.024 HU 75 1 17.8027 -123.024 TC 75 17.6950 -123.006 4 72 15 272
1973273N12250 1973 105 EP MM KATHERINE 1973-10-03 18:00:00 TS 17.7645 -123.889 75 hurdat_epa main 1432 1432 O________OP___ hurdat_epa EP111973 17.8000 -123.900 HU 75 1 17.8000 -123.900 TC 75 17.6226 -123.845 4 70 17 263
1973273N12250 1973 105 EP MM KATHERINE 1973-10-03 21:00:00 TS 17.5738 -124.766 main 1510 1510 P________PP___ EP111973 17.5951 -124.773 HU 70 1 17.5951 -124.773 TC 70 17.4886 -124.737 4 67 17 254
1973273N12250 1973 105 EP MM KATHERINE 1973-10-04 00:00:00 TS 17.3000 -125.600 65 hurdat_epa main 1590 1590 O________OO___ hurdat_epa EP111973 17.3000 -125.600 HU 65 1 17.3000 -125.600 TC 65 17.3000 -125.600 4 65 15 250
1973273N12250 1973 105 EP MM KATHERINE 1973-10-04 03:00:00 TS 17.0587 -126.281 main 1657 1657 P________PP___ EP111973 17.0569 -126.272 HU 62 0 17.0569 -126.272 TC 62 17.0657 -126.318 4 62 14 248
1973273N12250 1973 105 EP MM KATHERINE 1973-10-04 06:00:00 TS 16.7971 -126.919 60 hurdat_epa main 1725 1725 O________OP___ hurdat_epa EP111973 16.8000 -126.900 TS 60 0 16.8000 -126.900 TC 60 16.7857 -126.995 4 60 14 246
1973273N12250 1973 105 EP MM KATHERINE 1973-10-04 09:00:00 TS 16.4975 -127.610 main 1800 1800 P________PP___ EP111973 16.4999 -127.600 TS 57 0 16.4999 -127.600 TC 57 16.4878 -127.650 4 57 15 246
1973273N12250 1973 105 EP MM KATHERINE 1973-10-04 12:00:00 TS 16.2000 -128.300 55 hurdat_epa main 1876 1876 O________OO___ hurdat_epa EP111973 16.2000 -128.300 TS 55 0 16.2000 -128.300 TC 55 16.2000 -128.300 2 55 14 247
1973273N12250 1973 105 EP MM KATHERINE 1973-10-04 15:00:00 TS 15.9365 -128.956 main 1953 1953 P________PP___ EP111973 15.9347 -128.950 TS 55 0 15.9347 -128.950 TC 55 15.9439 -128.983 2 53 14 248
1973273N12250 1973 105 EP MM KATHERINE 1973-10-04 18:00:00 TS 15.7009 -129.613 55 hurdat_epa main 2014 2014 O________OP___ hurdat_epa EP111973 15.7000 -129.600 TS 55 0 15.7000 -129.600 TC 55 15.7045 -129.665 2 52 14 250
1973273N12250 1973 105 EP MM KATHERINE 1973-10-04 21:00:00 TS 15.4732 -130.278 main 2084 2084 P________PP___ EP111973 15.4695 -130.263 TS 52 0 15.4695 -130.263 TC 52 15.4877 -130.339 2 51 14 253
1973273N12250 1973 105 EP MM KATHERINE 1973-10-05 00:00:00 TS 15.3000 -131.000 50 hurdat_epa main 2154 2154 O________OO___ hurdat_epa EP111973 15.3000 -131.000 TS 50 0 15.3000 -131.000 TC 50 15.3000 -131.000 2 50 15 260
1973273N12250 1973 105 EP MM KATHERINE 1973-10-05 03:00:00 TS 15.2086 -131.818 main 2225 2225 P________PP___ EP111973 15.2274 -131.862 TS 50 0 15.2274 -131.862 TC 50 15.1334 -131.639 2 50 16 265
1973273N12250 1973 105 EP MM KATHERINE 1973-10-05 06:00:00 TS 15.1593 -132.693 50 hurdat_epa main 2298 2298 O________OP___ hurdat_epa EP111973 15.2000 -132.800 TS 50 0 15.2000 -132.800 TC 50 14.9966 -132.264 2 50 18 267
1973273N12250 1973 105 EP MM KATHERINE 1973-10-05 09:00:00 TS 15.1098 -133.648 main 2302 2219 P________PP___ EP111973 15.1656 -133.840 TS 50 0 15.1656 -133.840 TC 50 14.8865 -132.883 2 50 17 266
1973273N12250 1973 105 EP MM KATHERINE 1973-10-05 12:00:00 TS 15.0400 -134.460 50 hurdat_epa main 2212 2174 O________OO___ hurdat_epa EP111973 15.1000 -134.700 TS 50 0 15.1000 -134.700 TC 50 14.8000 -133.500 2 50 12 261
1973273N12250 1973 105 EP MM KATHERINE 1973-10-05 15:00:00 TS 14.9142 -134.895 main 2174 2146 P________PP___ EP111973 14.9568 -135.090 TS 50 0 14.9568 -135.090 TC 50 14.7440 -134.116 2 48 7 250
1973273N12250 1973 105 EP MM KATHERINE 1973-10-05 18:00:00 TS 14.7813 -135.187 50 hurdat_epa main 2146 2119 O________OP___ hurdat_epa EP111973 14.8000 -135.300 TS 50 0 14.8000 -135.300 TC 50 14.7066 -134.734 2 47 7 251
1973273N12250 1973 105 EP MM KATHERINE 1973-10-05 21:00:00 TS 14.6929 -135.550 main 2119 2071 P________PP___ EP111973 14.6997 -135.597 TS 50 0 14.6997 -135.597 TC 50 14.6659 -135.360 2 46 8 257
1973273N12250 1973 105 EP MM KATHERINE 1973-10-06 00:00:00 TS 14.6000 -136.000 50 hurdat_epa main 2071 2013 O________OO___ hurdat_epa EP111973 14.6000 -136.000 TS 50 0 14.6000 -136.000 TC 50 14.6000 -136.000 2 45 11 257
1973273N12250 1973 105 EP MM KATHERINE 1973-10-06 03:00:00 TS 14.4617 -136.609 main 2013 1949 P________PP___ EP111973 14.4576 -136.598 TS 47 0 14.4576 -136.598 TC 47 14.4782 -136.653 2 43 13 257
1973273N12250 1973 105 EP MM KATHERINE 1973-10-06 06:00:00 TS 14.3058 -137.304 45 hurdat_epa main 1949 1882 O________OP___ hurdat_epa EP111973 14.3000 -137.300 TS 45 0 14.3000 -137.300 TC 45 14.3292 -137.320 2 42 14 257
1973273N12250 1973 105 EP MM KATHERINE 1973-10-06 09:00:00 TS 14.1530 -137.994 main 1882 1820 P________PP___ EP111973 14.1499 -137.992 TS 45 0 14.1499 -137.992 TC 45 14.1656 -138.003 2 41 14 257
1973273N12250 1973 105 EP MM KATHERINE 1973-10-06 12:00:00 TS 14.0000 -138.700 45 hurdat_epa main 1820 1755 O________OO___ hurdat_epa EP111973 14.0000 -138.700 TS 45 0 14.0000 -138.700 TC 45 14.0000 -138.700 2 40 14 257
1973273N12250 1973 105 EP MM KATHERINE 1973-10-06 15:00:00 TS 13.8466 -139.406 main 1759 1694 P________PP___ EP111973 13.8497 -139.392 TS 45 0 13.8497 -139.392 TC 45 13.8342 -139.459 2 42 14 256
1973273N12250 1973 105 EP CP KATHERINE 1973-10-06 18:00:00 TS 13.6611 -140.114 45 hurdat_epa main 1694 1636 O________OP___ hurdat_epa EP111973 13.7000 -140.100 TS 45 0 13.7000 -140.100 TC 45 13.6708 -140.225 2 45 15 255
1973273N12250 1973 105 EP CP KATHERINE 1973-10-06 21:00:00 TS 13.4787 -140.850 main 1636 1578 P________PP___ EP111973 13.5352 -140.895 TS 42 0 13.5352 -140.895 TC 42 13.5218 -140.953 2 47 14 256
1973273N12250 1973 105 EP CP KATHERINE 1973-10-07 00:00:00 TS 13.3348 -141.483 40 hurdat_epa main 1578 1540 O________OO___ hurdat_epa EP111973 13.4000 -141.600 TS 40 0 13.4000 -141.600 TC 40 13.4000 -141.600 2 50 11 258
1973273N12250 1973 105 EP CP KATHERINE 1973-10-07 03:00:00 TS 13.2571 -141.906 main 1540 1508 P________PP___ EP111973 13.3346 -142.045 TS 40 0 13.3346 -142.045 TC 40 13.3116 -142.078 2 47 8 262
1973273N12250 1973 105 EP CP KATHERINE 1973-10-07 06:00:00 TS 13.2255 -142.297 40 hurdat_epa main 1508 1470 O________OP___ hurdat_epa EP111973 13.3000 -142.400 TS 40 0 13.3000 -142.400 TC 40 13.2529 -142.479 2 45 8 265
1973273N12250 1973 105 EP CP KATHERINE 1973-10-07 09:00:00 TS 13.1812 -142.725 main 1470 1423 P________PP___ EP111973 13.2423 -142.813 TS 40 0 13.2423 -142.813 TC 40 13.2179 -142.866 2 42 9 265
1973273N12250 1973 105 EP CP KATHERINE 1973-10-07 12:00:00 TS 13.1500 -143.217 40 hurdat_epa main 1423 1374 O________OO___ hurdat_epa EP111973 13.2000 -143.300 TS 40 0 13.2000 -143.300 TC 40 13.2000 -143.300 2 40 11 268
1973273N12250 1973 105 EP CP KATHERINE 1973-10-07 15:00:00 TS 13.1441 -143.876 main 1365 1311 P________PP___ EP111973 13.2004 -143.987 TS 40 0 13.2004 -143.987 TC 40 13.1703 -143.920 2 12 270
1973273N12250 1973 105 EP CP KATHERINE 1973-10-07 18:00:00 TS 13.1427 -144.498 40 hurdat_epa main 1311 1284 O________OP___ hurdat_epa EP111973 13.2000 -144.600 TS 40 0 13.2000 -144.600 TC 40 13.1563 -144.588 2 10 269
1973273N12250 1973 105 EP CP KATHERINE 1973-10-07 21:00:00 TS 13.1224 -144.850 main 1276 1249 P________PP___ EP111973 13.1569 -144.800 TS 37 0 13.1569 -144.800 TC 37 13.1641 -145.236 2 7 266
1973273N12250 1973 105 EP CP KATHERINE 1973-10-08 00:00:00 TS 13.1000 -145.183 35 hurdat_epa main 1249 1206 O________OO___ hurdat_epa EP111973 13.1000 -145.000 TS 35 0 13.1000 -145.000 TC 35 13.2000 -145.800 2 9 267
1973273N12250 1973 105 EP CP KATHERINE 1973-10-08 03:00:00 TS 13.0704 -145.753 main 1197 1155 P________PP___ EP111973 13.0279 -145.613 TS 35 0 13.0279 -145.613 TC 35 13.2686 -146.231 2 11 268
1973273N12250 1973 105 EP CP KATHERINE 1973-10-08 06:00:00 TS 13.0649 -146.333 35 hurdat_epa main 1155 1122 O________OP___ hurdat_epa EP111973 13.0000 -146.300 TS 35 0 13.0000 -146.300 TC 35 13.3641 -146.550 2 10 274
1973273N12250 1973 105 EP CP KATHERINE 1973-10-08 09:00:00 TS 13.1400 -146.757 main 1114 1082 P________PP___ EP111973 13.0847 -146.765 TS 35 0 13.0847 -146.765 TC 35 13.4775 -146.794 2 8 282
1973273N12250 1973 105 EP CP KATHERINE 1973-10-08 12:00:00 TS 13.2350 -147.175 35 hurdat_epa main 1074 1026 O________OO___ hurdat_epa EP111973 13.2000 -147.200 TS 35 0 13.2000 -147.200 TC 35 13.6000 -147.000 1 30 10 278
1973273N12250 1973 105 EP CP KATHERINE 1973-10-08 15:00:00 TS 13.2670 -147.726 main 1026 988 P________P____ EP111973 13.2501 -147.750 TS 35 0 13.2501 -147.750 TC 35 1 11 274
1973273N12250 1973 105 EP CP KATHERINE 1973-10-08 18:00:00 TS 13.3154 -148.277 35 hurdat_epa main 980 942 O________O____ hurdat_epa EP111973 13.3000 -148.300 TS 35 0 13.3000 -148.300 TC 35 1 10 277
1973273N12250 1973 105 EP CP KATHERINE 1973-10-08 21:00:00 TS 13.3875 -148.775 main 934 896 P________P____ EP111973 13.3875 -148.775 TS 32 -1 13.3875 -148.775 TC 32 1 9 282
1973273N12250 1973 105 EP CP KATHERINE 1973-10-09 00:00:00 TS 13.5000 -149.200 30 hurdat_epa main 896 O________O____ hurdat_epa EP111973 13.5000 -149.200 TD 30 -1 13.5000 -149.200 TC 30 9 285

IBTrACS Databaseについて

本データベースは、米国NOAAが公開する1842年以降の世界の熱帯低気圧のベストトラックデータアーカイブInternational Best Track Archive for Climate Stewardship (IBTrACS)を、ウェブで閲覧しやすい形式に変換したものです。

最終更新日:2021-11-26